Time;durP1;ratioP1;P1;durP2;ratioP2;P2;SDS_P1;SDS_P2;PMS_P1;PMS_P2;Temp;Humidity;BMP_temperature;BMP_pressure;BME280_temperature;BME280_humidity;BME280_pressure;Samples;Min_cycle;Max_cycle;Signal;HPM_P1;HPM_P2
2023/06/21 00:01:58;;;;;;;2.87;1.27;;;18.80;99.90;;;;;;5080488;28;20924;-49
2023/06/21 00:04:24;;;;;;;6.00;1.67;;;18.80;99.90;;;;;;5077633;28;20587;-52
2023/06/21 00:06:51;;;;;;;2.93;1.63;;;18.60;99.90;;;;;;5051275;28;20220;-53
2023/06/21 00:09:19;;;;;;;5.57;1.67;;;18.60;99.90;;;;;;5079005;28;20193;-50
2023/06/21 00:11:47;;;;;;;2.23;1.70;;;18.50;99.90;;;;;;5071274;28;20225;-53
2023/06/21 00:14:14;;;;;;;4.20;1.30;;;18.50;99.90;;;;;;5084282;28;20195;-51
2023/06/21 00:16:41;;;;;;;4.33;1.60;;;18.50;99.90;;;;;;5080304;28;20743;-54
2023/06/21 00:19:07;;;;;;;3.90;1.40;;;18.50;99.90;;;;;;5077194;28;20209;-51
2023/06/21 00:21:34;;;;;;;2.50;1.20;;;18.40;99.90;;;;;;5055482;28;20659;-51
2023/06/21 00:24:02;;;;;;;1.70;1.20;;;18.30;99.90;;;;;;5083244;28;20202;-52
2023/06/21 00:26:29;;;;;;;2.53;1.57;;;18.30;99.90;;;;;;5079524;28;20190;-53
2023/06/21 00:28:58;;;;;;;3.30;1.40;;;18.30;99.90;;;;;;5078262;28;20225;-54
2023/06/21 00:31:24;;;;;;;1.43;1.20;;;18.30;99.90;;;;;;5062333;28;20218;-52
2023/06/21 00:33:51;;;;;;;2.03;1.53;;;18.20;99.90;;;;;;5066556;28;20551;-51
2023/06/21 00:36:18;;;;;;;4.00;1.33;;;18.20;99.90;;;;;;5065176;28;20198;-54
2023/06/21 00:38:46;;;;;;;4.20;1.10;;;18.20;99.90;;;;;;5042857;28;20888;-49
2023/06/21 00:41:13;;;;;;;1.97;1.67;;;18.20;99.90;;;;;;5083522;28;20217;-50
2023/06/21 00:43:40;;;;;;;3.63;1.10;;;18.30;99.90;;;;;;5055422;28;20816;-51
2023/06/21 00:46:08;;;;;;;2.83;1.37;;;18.30;99.90;;;;;;5077951;28;20275;-49
2023/06/21 00:48:35;;;;;;;2.47;1.40;;;18.30;99.90;;;;;;5080695;28;20265;-52
2023/06/21 00:51:02;;;;;;;3.47;1.20;;;18.30;99.90;;;;;;5057274;28;20221;-54
2023/06/21 00:53:30;;;;;;;4.03;1.43;;;18.30;99.90;;;;;;5043547;28;20210;-53
2023/06/21 00:55:57;;;;;;;2.53;1.37;;;18.30;99.90;;;;;;5079646;28;20197;-49
2023/06/21 00:58:24;;;;;;;3.57;1.10;;;18.40;99.90;;;;;;5054078;28;20214;-54
2023/06/21 01:00:51;;;;;;;2.50;1.27;;;18.40;99.90;;;;;;5080669;28;20222;-54
2023/06/21 01:03:20;;;;;;;2.50;1.23;;;18.50;99.90;;;;;;5065694;28;20202;-51
2023/06/21 01:06:02;;;;;;;4.20;1.30;;;18.50;99.90;;;;;;5063480;28;20920;-55
2023/06/21 01:08:36;;;;;;;2.60;1.43;;;18.40;99.90;;;;;;5050589;28;20198;-52
2023/06/21 01:11:10;;;;;;;3.33;1.50;;;18.40;99.90;;;;;;5078672;28;20255;-52
2023/06/21 01:13:51;;;;;;;2.37;1.23;;;18.40;99.90;;;;;;5074003;28;20200;-52
2023/06/21 01:16:19;;;;;;;4.83;1.60;;;18.30;99.90;;;;;;5080426;28;20773;-52
2023/06/21 01:18:49;;;;;;;3.37;1.27;;;18.30;99.90;;;;;;5062641;28;20197;-52
2023/06/21 01:21:18;;;;;;;5.33;1.50;;;18.40;99.90;;;;;;5068683;28;20209;-52
2023/06/21 01:24:06;;;;;;;3.10;1.60;;;18.30;99.90;;;;;;5061233;28;20287;-54
2023/06/21 01:27:03;;;;;;;1.63;1.00;;;18.30;99.90;;;;;;5058250;28;20190;-50
2023/06/21 01:29:35;;;;;;;3.67;1.30;;;18.30;99.90;;;;;;5074961;28;20189;-51
2023/06/21 01:32:03;;;;;;;2.40;1.40;;;18.30;99.90;;;;;;5094972;28;20217;-52
2023/06/21 01:34:32;;;;;;;2.73;1.50;;;18.30;99.90;;;;;;5057646;28;20247;-52
2023/06/21 01:36:59;;;;;;;3.10;1.23;;;18.30;99.90;;;;;;5074739;28;20640;-54
2023/06/21 01:39:29;;;;;;;3.20;1.70;;;18.30;99.90;;;;;;5061608;28;20209;-52
2023/06/21 01:41:56;;;;;;;2.30;1.43;;;18.40;99.90;;;;;;5081756;28;20734;-51
2023/06/21 01:44:24;;;;;;;3.50;1.67;;;18.40;99.90;;;;;;5076595;28;20182;-50
2023/06/21 01:46:56;;;;;;;2.67;1.70;;;18.30;99.90;;;;;;5062368;28;20285;-49
2023/06/21 01:49:23;;;;;;;4.00;1.53;;;18.30;99.90;;;;;;5080355;28;20233;-52
2023/06/21 01:51:51;;;;;;;2.90;1.60;;;18.30;99.90;;;;;;5075003;28;20266;-50
2023/06/21 01:54:20;;;;;;;4.53;1.30;;;18.30;99.90;;;;;;5070751;28;20190;-52
2023/06/21 01:56:50;;;;;;;2.37;1.70;;;18.30;99.90;;;;;;5069654;28;20792;-54
2023/06/21 01:59:18;;;;;;;2.53;1.57;;;18.30;99.90;;;;;;5062531;28;20213;-53
2023/06/21 02:01:50;;;;;;;1.90;1.40;;;18.30;99.90;;;;;;5062763;28;20206;-54
2023/06/21 02:04:19;;;;;;;3.90;1.70;;;18.30;99.90;;;;;;5081324;28;20537;-52
2023/06/21 02:06:48;;;;;;;2.70;1.83;;;18.30;99.90;;;;;;5064560;28;20314;-53
2023/06/21 02:09:15;;;;;;;4.43;2.00;;;18.30;99.90;;;;;;5062197;28;20796;-49
2023/06/21 02:11:43;;;;;;;4.80;1.70;;;18.20;99.90;;;;;;5042639;28;20214;-54
2023/06/21 02:14:11;;;;;;;4.47;1.57;;;18.20;99.90;;;;;;5067330;28;20194;-51
2023/06/21 02:16:37;;;;;;;3.23;2.03;;;18.20;99.90;;;;;;5085272;28;20190;-52
2023/06/21 02:19:05;;;;;;;3.93;1.83;;;18.20;99.90;;;;;;5082710;28;20233;-53
2023/06/21 02:21:33;;;;;;;5.37;2.07;;;18.20;99.90;;;;;;5062980;28;20214;-51
2023/06/21 02:24:01;;;;;;;5.63;2.67;;;18.20;99.90;;;;;;5069663;28;20273;-52
2023/06/21 02:26:27;;;;;;;2.90;2.00;;;18.20;99.90;;;;;;5065914;28;20216;-49
2023/06/21 02:28:54;;;;;;;3.10;1.90;;;18.20;99.90;;;;;;5080912;28;20207;-51
2023/06/21 02:31:21;;;;;;;2.77;2.30;;;18.30;99.90;;;;;;5084084;28;20247;-52
2023/06/21 02:33:48;;;;;;;2.60;1.97;;;18.30;99.90;;;;;;5060534;28;20293;-52
2023/06/21 02:36:15;;;;;;;2.77;2.20;;;18.30;99.90;;;;;;5064833;28;20194;-51
2023/06/21 02:38:44;;;;;;;4.07;2.33;;;18.30;99.90;;;;;;5058535;28;20630;-53
2023/06/21 02:41:11;;;;;;;4.23;3.13;;;18.30;99.90;;;;;;5064712;28;20298;-51
2023/06/21 02:43:38;;;;;;;4.37;2.60;;;18.40;99.90;;;;;;5057195;28;20229;-53
2023/06/21 02:46:05;;;;;;;6.80;3.07;;;18.40;99.90;;;;;;5060915;28;20198;-53
2023/06/21 02:48:32;;;;;;;2.73;2.50;;;18.40;99.90;;;;;;5067270;28;20185;-52
2023/06/21 02:50:59;;;;;;;3.90;2.90;;;18.40;99.90;;;;;;5081577;28;20971;-54
2023/06/21 02:53:26;;;;;;;4.30;2.90;;;18.40;99.90;;;;;;5073445;28;20198;-54
2023/06/21 02:55:55;;;;;;;3.17;2.67;;;18.40;99.90;;;;;;5059945;28;20248;-50
2023/06/21 02:58:22;;;;;;;2.50;2.30;;;18.40;99.90;;;;;;5041478;28;20241;-52
2023/06/21 03:00:48;;;;;;;3.57;2.73;;;18.40;99.90;;;;;;5079326;28;20259;-53
2023/06/21 03:03:15;;;;;;;4.03;2.77;;;18.40;99.90;;;;;;5067905;28;20691;-54
2023/06/21 03:05:42;;;;;;;3.53;2.70;;;18.40;99.90;;;;;;5079162;28;20193;-52
2023/06/21 03:08:12;;;;;;;3.03;2.70;;;18.40;99.90;;;;;;5078841;28;20314;-51
2023/06/21 03:10:39;;;;;;;3.57;2.70;;;18.40;99.90;;;;;;5041267;28;20312;-50
2023/06/21 03:13:08;;;;;;;6.77;3.17;;;18.50;99.90;;;;;;5032527;28;20210;-53
2023/06/21 03:15:36;;;;;;;3.27;2.70;;;18.40;99.90;;;;;;5062352;28;20182;-51
2023/06/21 03:18:03;;;;;;;3.43;2.83;;;18.40;99.90;;;;;;5084152;28;20569;-54
2023/06/21 03:20:30;;;;;;;3.30;3.00;;;18.40;99.90;;;;;;5055750;28;20214;-52
2023/06/21 03:23:00;;;;;;;3.30;3.00;;;18.50;99.90;;;;;;5066742;28;20597;-53
2023/06/21 03:25:28;;;;;;;3.57;3.13;;;18.50;99.90;;;;;;5049559;28;20542;-54
2023/06/21 03:27:59;;;;;;;3.23;2.93;;;18.50;99.90;;;;;;5067052;28;20189;-52
2023/06/21 03:30:28;;;;;;;3.90;3.60;;;18.50;99.90;;;;;;5059422;28;20768;-49
2023/06/21 03:32:55;;;;;;;3.80;3.50;;;18.50;99.90;;;;;;5061029;28;20289;-51
2023/06/21 03:35:22;;;;;;;5.43;4.23;;;18.50;99.90;;;;;;5082339;28;20198;-54
2023/06/21 03:37:50;;;;;;;5.30;3.67;;;18.50;99.90;;;;;;5065456;28;20208;-51
2023/06/21 03:40:22;;;;;;;5.33;3.67;;;18.50;99.90;;;;;;5056779;28;20237;-53
2023/06/21 03:42:49;;;;;;;5.87;4.10;;;18.50;99.90;;;;;;5082262;28;20896;-53
2023/06/21 03:45:16;;;;;;;4.80;4.30;;;18.50;99.90;;;;;;5058966;28;20259;-51
2023/06/21 03:47:49;;;;;;;4.43;4.03;;;18.50;99.90;;;;;;5060658;28;21567;-51
2023/06/21 03:50:17;;;;;;;6.87;4.20;;;18.50;99.90;;;;;;5069713;28;20215;-54
2023/06/21 03:52:46;;;;;;;6.33;4.87;;;18.60;99.90;;;;;;5057947;28;20190;-53
2023/06/21 03:55:13;;;;;;;5.13;4.73;;;18.60;99.90;;;;;;5052093;28;20229;-55
2023/06/21 03:57:40;;;;;;;7.20;4.50;;;18.60;99.90;;;;;;5056345;28;20206;-53
2023/06/21 04:00:09;;;;;;;7.57;5.10;;;18.60;99.90;;;;;;5068904;28;20202;-53
2023/06/21 04:02:42;;;;;;;5.20;4.70;;;18.70;99.90;;;;;;5076064;28;20213;-54
2023/06/21 04:05:11;;;;;;;4.53;4.13;;;18.70;99.90;;;;;;5064762;28;20193;-49
2023/06/21 04:07:38;;;;;;;6.63;4.53;;;18.70;99.90;;;;;;5072968;28;20597;-52
2023/06/21 04:10:06;;;;;;;7.67;4.57;;;18.70;99.90;;;;;;5072702;28;20222;-54
2023/06/21 04:12:33;;;;;;;5.40;4.90;;;18.70;99.90;;;;;;5066598;28;20198;-54
2023/06/21 04:15:01;;;;;;;4.77;4.33;;;18.80;99.90;;;;;;5060985;28;20387;-52
2023/06/21 04:17:28;;;;;;;6.50;4.90;;;18.80;99.90;;;;;;5070916;28;20182;-53
2023/06/21 04:19:55;;;;;;;6.00;5.27;;;18.80;99.90;;;;;;5078691;28;20739;-53
2023/06/21 04:22:24;;;;;;;5.20;4.70;;;18.90;99.90;;;;;;5047985;28;20218;-53
2023/06/21 04:24:52;;;;;;;5.83;5.20;;;18.90;99.90;;;;;;5065719;28;20271;-53
2023/06/21 04:27:22;;;;;;;5.73;5.23;;;18.90;99.90;;;;;;5045183;28;20194;-53
2023/06/21 04:29:49;;;;;;;6.17;5.63;;;18.90;99.90;;;;;;5062700;28;20255;-53
2023/06/21 04:32:17;;;;;;;7.77;6.37;;;18.90;99.90;;;;;;5074260;28;20855;-53
2023/06/21 04:34:47;;;;;;;5.20;4.77;;;19.00;99.90;;;;;;5083507;28;20194;-55
2023/06/21 04:37:14;;;;;;;5.37;4.87;;;19.00;99.90;;;;;;5066833;28;20210;-53
2023/06/21 04:39:43;;;;;;;7.20;5.93;;;19.00;99.90;;;;;;5083875;28;20210;-51
2023/06/21 04:42:10;;;;;;;6.90;5.60;;;19.10;99.90;;;;;;5079437;28;20182;-51
2023/06/21 04:44:36;;;;;;;7.10;6.17;;;19.10;99.90;;;;;;5057519;28;20225;-50
2023/06/21 04:47:04;;;;;;;6.50;5.90;;;19.10;99.90;;;;;;5079677;28;20217;-52
2023/06/21 04:49:31;;;;;;;7.00;6.40;;;19.20;99.90;;;;;;5083971;28;20656;-50
2023/06/21 04:51:58;;;;;;;7.83;6.43;;;19.20;99.90;;;;;;5075626;28;20210;-51
2023/06/21 04:54:25;;;;;;;8.80;6.47;;;19.20;99.90;;;;;;5070196;28;20194;-51
2023/06/21 04:56:53;;;;;;;6.80;6.20;;;19.30;99.90;;;;;;5067027;28;20247;-52
2023/06/21 04:59:20;;;;;;;7.77;6.67;;;19.30;99.90;;;;;;5048878;28;20225;-51
2023/06/21 05:01:47;;;;;;;7.50;6.80;;;19.30;99.90;;;;;;5073381;28;20291;-51
2023/06/21 05:04:14;;;;;;;8.50;7.07;;;19.30;99.90;;;;;;5054745;28;20205;-52
2023/06/21 05:06:41;;;;;;;7.67;6.83;;;19.40;99.90;;;;;;5062245;28;20858;-52
2023/06/21 05:09:09;;;;;;;7.50;6.80;;;19.40;99.90;;;;;;5050604;28;20289;-49
2023/06/21 05:11:36;;;;;;;7.50;6.73;;;19.40;99.90;;;;;;5080501;28;20216;-53
2023/06/21 05:14:04;;;;;;;8.20;7.30;;;19.40;99.90;;;;;;5072932;28;20217;-50
2023/06/21 05:16:31;;;;;;;8.77;7.87;;;19.50;99.90;;;;;;5065709;28;22901;-51
2023/06/21 05:18:58;;;;;;;9.07;8.10;;;19.50;99.90;;;;;;5077131;28;20263;-52
2023/06/21 05:21:25;;;;;;;9.20;8.30;;;19.50;99.90;;;;;;5071150;28;20214;-50
2023/06/21 05:23:52;;;;;;;8.43;7.63;;;19.60;99.90;;;;;;5077014;28;20229;-53
2023/06/21 05:26:19;;;;;;;9.13;8.13;;;19.60;99.90;;;;;;5078051;28;20941;-51
2023/06/21 05:28:46;;;;;;;10.50;8.50;;;19.50;99.90;;;;;;5081997;28;20217;-52
2023/06/21 05:31:14;;;;;;;10.73;9.50;;;19.50;99.90;;;;;;5052491;28;20339;-53
2023/06/21 05:33:41;;;;;;;11.47;10.30;;;19.50;99.90;;;;;;5074023;28;20202;-54
2023/06/21 05:36:09;;;;;;;11.33;10.13;;;19.60;99.90;;;;;;5072984;28;20259;-51
2023/06/21 05:38:35;;;;;;;12.80;11.43;;;19.50;99.90;;;;;;5056329;28;20234;-51
2023/06/21 05:41:02;;;;;;;12.60;11.27;;;19.50;99.90;;;;;;5081471;28;20896;-55
2023/06/21 05:43:29;;;;;;;14.87;13.17;;;19.40;99.90;;;;;;5073764;28;20965;-53
2023/06/21 05:45:56;;;;;;;16.57;13.93;;;19.40;99.90;;;;;;5060506;28;20309;-51
2023/06/21 05:48:24;;;;;;;19.47;15.27;;;19.40;99.90;;;;;;5075629;28;20279;-53
2023/06/21 05:50:51;;;;;;;21.67;18.13;;;19.40;99.90;;;;;;5076692;28;20700;-52
2023/06/21 05:53:17;;;;;;;24.13;18.30;;;19.30;99.90;;;;;;5073338;28;20218;-54
2023/06/21 05:55:46;;;;;;;22.77;18.20;;;19.20;99.90;;;;;;5079925;28;20258;-52
2023/06/21 05:58:13;;;;;;;26.27;19.93;;;19.20;99.90;;;;;;5082492;28;20182;-53
2023/06/21 06:00:39;;;;;;;27.27;20.43;;;19.20;99.90;;;;;;5065807;28;20220;-50
2023/06/21 06:03:08;;;;;;;31.07;22.43;;;19.20;99.90;;;;;;5080612;28;20259;-51
2023/06/21 06:05:36;;;;;;;29.63;22.10;;;19.20;99.90;;;;;;5073307;28;20205;-52
2023/06/21 06:08:03;;;;;;;28.43;22.07;;;19.30;99.90;;;;;;5077411;28;20190;-53
2023/06/21 06:10:30;;;;;;;31.17;22.50;;;19.30;99.90;;;;;;5073401;28;20233;-54
2023/06/21 06:12:57;;;;;;;33.53;23.00;;;19.30;99.90;;;;;;5080687;28;20190;-54
2023/06/21 06:15:24;;;;;;;34.73;23.93;;;19.40;99.90;;;;;;5059749;28;20328;-52
2023/06/21 06:17:51;;;;;;;30.60;23.50;;;19.40;99.90;;;;;;5083636;28;20208;-51
2023/06/21 06:20:18;;;;;;;31.27;24.33;;;19.50;99.90;;;;;;5069622;28;20302;-52
2023/06/21 06:22:47;;;;;;;31.93;24.00;;;19.60;99.90;;;;;;5078121;28;20205;-53
2023/06/21 06:25:14;;;;;;;28.87;23.63;;;19.60;99.90;;;;;;5043872;28;20205;-52
2023/06/21 06:27:41;;;;;;;28.87;23.07;;;19.70;99.90;;;;;;5085233;28;20210;-53
2023/06/21 06:30:09;;;;;;;30.13;23.97;;;19.80;99.90;;;;;;5078302;28;20829;-49
2023/06/21 06:32:35;;;;;;;34.73;25.67;;;19.80;99.90;;;;;;5059113;28;20436;-49
2023/06/21 06:35:02;;;;;;;29.27;24.77;;;19.90;99.90;;;;;;5084427;28;20205;-49
2023/06/21 06:37:29;;;;;;;30.53;23.97;;;19.90;99.90;;;;;;5076163;28;20745;-49
2023/06/21 06:39:57;;;;;;;29.37;23.80;;;20.00;99.90;;;;;;5072815;28;20206;-54
2023/06/21 06:42:24;;;;;;;32.40;25.27;;;20.10;99.90;;;;;;5074285;28;20259;-51
2023/06/21 06:44:52;;;;;;;30.73;24.33;;;20.10;99.90;;;;;;5062837;28;20251;-53
2023/06/21 06:47:19;;;;;;;30.47;25.50;;;20.20;99.90;;;;;;5063432;28;20202;-52
2023/06/21 06:49:46;;;;;;;28.77;23.77;;;20.30;99.90;;;;;;5082601;28;20228;-48
2023/06/21 06:52:13;;;;;;;27.27;24.00;;;20.20;99.90;;;;;;5081471;28;20195;-53
2023/06/21 06:54:40;;;;;;;28.30;24.37;;;20.30;99.90;;;;;;5080555;28;20941;-54
2023/06/21 06:57:08;;;;;;;27.33;24.43;;;20.40;99.90;;;;;;5073618;28;20186;-51
2023/06/21 06:59:35;;;;;;;30.90;25.23;;;20.40;99.90;;;;;;5085060;28;20235;-51
2023/06/21 07:02:02;;;;;;;26.13;23.27;;;20.50;99.90;;;;;;5062676;28;20274;-54
2023/06/21 07:04:29;;;;;;;27.27;24.13;;;20.60;99.90;;;;;;5082609;28;20190;-54
2023/06/21 07:06:57;;;;;;;26.03;23.40;;;20.60;99.90;;;;;;5077037;28;20915;-50
2023/06/21 07:09:25;;;;;;;33.03;26.60;;;20.70;99.90;;;;;;5084040;28;20672;-50
2023/06/21 07:11:56;;;;;;;27.73;24.77;;;20.70;99.90;;;;;;5075951;28;20298;-52
2023/06/21 07:14:24;;;;;;;27.00;24.20;;;20.70;99.90;;;;;;5084289;28;20193;-52
2023/06/21 07:16:51;;;;;;;29.20;24.40;;;20.70;99.90;;;;;;5083731;28;20652;-50
2023/06/21 07:19:18;;;;;;;29.27;24.73;;;20.70;99.90;;;;;;5055902;28;20265;-50
2023/06/21 07:21:45;;;;;;;25.67;22.93;;;20.80;99.90;;;;;;5084844;28;20214;-53
2023/06/21 07:24:12;;;;;;;25.80;23.10;;;20.90;99.90;;;;;;5081528;28;20518;-51
2023/06/21 07:26:39;;;;;;;25.43;22.67;;;20.80;99.90;;;;;;5076875;28;20217;-51
2023/06/21 07:29:06;;;;;;;26.67;23.83;;;20.80;99.90;;;;;;5073681;28;20198;-49
2023/06/21 07:31:34;;;;;;;26.30;23.50;;;20.80;99.90;;;;;;5068452;28;20986;-49
2023/06/21 07:34:01;;;;;;;24.30;21.80;;;20.90;99.90;;;;;;5062225;28;20262;-53
2023/06/21 07:36:28;;;;;;;22.33;20.03;;;20.90;99.90;;;;;;5075521;28;20202;-52
2023/06/21 07:38:55;;;;;;;22.83;20.63;;;21.00;99.90;;;;;;5081961;28;20254;-52
2023/06/21 07:41:22;;;;;;;23.37;20.97;;;21.10;99.90;;;;;;5073330;28;20218;-50
2023/06/21 07:43:49;;;;;;;23.20;20.67;;;21.20;99.90;;;;;;5070052;28;20766;-53
2023/06/21 07:46:16;;;;;;;21.80;19.60;;;21.20;99.90;;;;;;5077977;28;20275;-54
2023/06/21 07:48:45;;;;;;;20.97;19.07;;;21.40;99.90;;;;;;5074926;28;20713;-55
2023/06/21 07:51:11;;;;;;;21.90;19.80;;;21.40;99.90;;;;;;5065046;28;20730;-55
2023/06/21 07:53:38;;;;;;;23.33;20.17;;;21.40;99.90;;;;;;5079088;28;20266;-53
2023/06/21 07:56:05;;;;;;;22.93;20.70;;;21.50;99.90;;;;;;5079169;28;20264;-52
2023/06/21 07:58:32;;;;;;;22.70;19.67;;;21.60;99.90;;;;;;5065312;28;20190;-54
2023/06/21 08:00:59;;;;;;;22.43;20.30;;;21.70;99.90;;;;;;5070023;28;20222;-56
2023/06/21 08:03:26;;;;;;;21.47;19.37;;;21.70;99.90;;;;;;5056028;28;20226;-54
2023/06/21 08:05:54;;;;;;;21.60;19.57;;;21.70;99.90;;;;;;5048132;28;20226;-51
2023/06/21 08:08:21;;;;;;;22.60;20.40;;;21.70;99.90;;;;;;5081799;28;20217;-50
2023/06/21 08:10:48;;;;;;;23.43;20.53;;;21.70;99.90;;;;;;5070073;28;20954;-54
2023/06/21 08:13:18;;;;;;;23.13;20.92;;;21.60;99.90;;;;;;5083877;28;20217;-52
2023/06/21 08:15:46;;;;;;;22.92;20.73;;;21.70;99.90;;;;;;5070016;28;20194;-52
2023/06/21 08:18:13;;;;;;;23.25;21.05;;;21.80;99.90;;;;;;5047288;28;20278;-53
2023/06/21 08:20:40;;;;;;;24.83;22.43;;;21.80;99.90;;;;;;5060902;28;20323;-54
2023/06/21 08:23:08;;;;;;;23.90;21.63;;;21.80;99.90;;;;;;5083357;28;20272;-54
2023/06/21 08:25:36;;;;;;;22.67;20.38;;;21.90;99.90;;;;;;5080058;28;20194;-55
2023/06/21 08:28:03;;;;;;;24.27;21.88;;;21.90;99.90;;;;;;5068710;28;20274;-51
2023/06/21 08:30:31;;;;;;;23.95;21.55;;;21.90;99.90;;;;;;5061951;28;20214;-52
2023/06/21 08:32:58;;;;;;;23.60;21.27;;;22.00;99.90;;;;;;5077102;28;20212;-52
2023/06/21 08:35:24;;;;;;;23.83;21.48;;;22.00;99.90;;;;;;5072400;28;20668;-50
2023/06/21 08:37:56;;;;;;;22.83;20.73;;;22.10;99.90;;;;;;5061764;28;20221;-54
2023/06/21 08:40:27;;;;;;;21.83;19.77;;;22.10;99.90;;;;;;5080657;28;20314;-51
2023/06/21 08:42:54;;;;;;;18.52;16.73;;;22.10;99.90;;;;;;5073606;28;20189;-54
2023/06/21 08:45:21;;;;;;;17.40;15.90;;;22.20;99.90;;;;;;5055593;28;20206;-50
2023/06/21 08:47:49;;;;;;;16.70;15.00;;;22.30;99.90;;;;;;5069506;28;22834;-52
2023/06/21 08:50:18;;;;;;;16.23;13.48;;;22.30;99.90;;;;;;5075096;28;20584;-54
2023/06/21 08:52:48;;;;;;;15.23;13.60;;;22.40;99.90;;;;;;5058551;28;20206;-52
2023/06/21 08:55:16;;;;;;;14.20;12.80;;;22.60;99.90;;;;;;5077119;28;20198;-48
2023/06/21 08:57:48;;;;;;;14.23;12.80;;;22.70;99.90;;;;;;5079257;28;20190;-54
2023/06/21 09:00:20;;;;;;;12.90;11.60;;;22.80;99.90;;;;;;5082875;28;20618;-53
2023/06/21 09:02:53;;;;;;;13.85;12.27;;;22.90;99.90;;;;;;5068849;28;20433;-54
2023/06/21 09:05:29;;;;;;;13.00;11.43;;;22.80;99.90;;;;;;5075991;28;20197;-52
2023/06/21 09:07:58;;;;;;;12.48;10.35;;;22.80;99.90;;;;;;5057823;28;20218;-49
2023/06/21 09:10:28;;;;;;;12.23;11.10;;;22.90;99.90;;;;;;5077228;28;20210;-55
2023/06/21 09:13:00;;;;;;;11.55;10.50;;;23.10;99.90;;;;;;5079291;28;20247;-50
2023/06/21 09:15:27;;;;;;;11.35;9.90;;;23.20;99.90;;;;;;5079364;28;20205;-51
2023/06/21 09:17:55;;;;;;;10.85;9.63;;;23.20;99.90;;;;;;5064132;28;20339;-49
2023/06/21 09:20:27;;;;;;;11.20;10.30;;;23.30;99.90;;;;;;5076807;28;20209;-52
2023/06/21 09:22:55;;;;;;;10.38;9.48;;;23.30;99.90;;;;;;5058193;28;20899;-53
2023/06/21 09:25:22;;;;;;;10.02;8.77;;;23.30;99.90;;;;;;5077291;28;20251;-52
2023/06/21 09:27:49;;;;;;;9.70;8.70;;;23.50;99.90;;;;;;5078465;28;20352;-50
2023/06/21 09:30:19;;;;;;;9.15;8.27;;;23.60;99.90;;;;;;5074224;28;20282;-51
2023/06/21 09:32:46;;;;;;;9.70;8.70;;;23.50;99.90;;;;;;5070379;28;20205;-52
2023/06/21 09:35:14;;;;;;;9.30;8.40;;;23.50;99.90;;;;;;5075754;28;20221;-54
2023/06/21 09:37:42;;;;;;;8.32;7.53;;;23.40;99.90;;;;;;5050935;28;20202;-50
2023/06/21 09:40:09;;;;;;;9.20;8.50;;;23.60;99.90;;;;;;5084288;28;20237;-54
2023/06/21 09:42:37;;;;;;;10.60;9.18;;;23.70;99.90;;;;;;5069795;28;20219;-49
2023/06/21 09:45:08;;;;;;;10.68;9.45;;;23.80;99.90;;;;;;5082540;28;20243;-52
2023/06/21 09:47:36;;;;;;;10.73;9.63;;;23.70;99.90;;;;;;5072072;28;20261;-54
2023/06/21 09:50:06;;;;;;;12.98;9.77;;;23.70;99.90;;;;;;5075928;28;20602;-50
2023/06/21 09:52:33;;;;;;;9.40;8.55;;;23.70;99.90;;;;;;5072141;28;20434;-52
2023/06/21 09:55:00;;;;;;;10.38;9.30;;;23.60;99.90;;;;;;5057122;28;20255;-50
2023/06/21 09:57:30;;;;;;;13.70;8.77;;;23.60;99.90;;;;;;5077394;28;20212;-53
2023/06/21 09:59:59;;;;;;;10.18;9.15;;;23.60;99.90;;;;;;5080708;28;20206;-51
2023/06/21 10:02:27;;;;;;;10.38;9.45;;;23.70;99.90;;;;;;5075742;28;20687;-54
2023/06/21 10:04:55;;;;;;;8.93;7.97;;;23.80;99.90;;;;;;5069129;28;20202;-51
2023/06/21 10:07:23;;;;;;;9.30;8.52;;;23.90;99.90;;;;;;5072500;28;20218;-54
2023/06/21 10:09:51;;;;;;;10.88;9.85;;;24.00;99.90;;;;;;5056186;28;20207;-52
2023/06/21 10:12:17;;;;;;;9.23;8.38;;;24.10;99.90;;;;;;5081327;28;20252;-54
2023/06/21 10:14:45;;;;;;;9.75;8.85;;;24.20;99.90;;;;;;5078005;28;20179;-49
2023/06/21 10:17:12;;;;;;;9.32;8.48;;;24.20;99.90;;;;;;5064835;28;20210;-52
2023/06/21 10:19:43;;;;;;;9.40;8.50;;;24.40;99.90;;;;;;5071201;28;20564;-51
2023/06/21 10:22:15;;;;;;;7.75;7.00;;;24.60;99.90;;;;;;5077666;28;20206;-49
2023/06/21 10:24:47;;;;;;;8.63;7.78;;;24.60;99.90;;;;;;5062831;28;20635;-50
2023/06/21 10:27:15;;;;;;;8.02;7.18;;;24.60;99.90;;;;;;5077807;28;20202;-49
2023/06/21 10:29:44;;;;;;;10.05;9.00;;;24.60;99.90;;;;;;5062490;28;20668;-53
2023/06/21 10:32:12;;;;;;;10.18;8.98;;;24.70;99.90;;;;;;5081273;28;20194;-49
2023/06/21 10:34:56;;;;;;;10.35;8.55;;;24.50;99.90;;;;;;5066010;28;20609;-52
2023/06/21 10:37:33;;;;;;;10.00;9.00;;;24.50;99.90;;;;;;5077369;28;20270;-49
2023/06/21 10:40:05;;;;;;;8.18;7.50;;;24.60;99.90;;;;;;5066205;28;20241;-51
2023/06/21 10:42:33;;;;;;;10.13;9.15;;;24.70;99.90;;;;;;5054183;28;20727;-50
2023/06/21 10:45:00;;;;;;;9.85;8.88;;;24.50;99.90;;;;;;5081420;28;20214;-52
2023/06/21 10:47:27;;;;;;;9.55;8.27;;;24.40;99.90;;;;;;5083099;28;20243;-52
2023/06/21 10:49:57;;;;;;;10.55;9.55;;;24.40;99.90;;;;;;5073526;28;20194;-50
2023/06/21 10:52:27;;;;;;;10.50;9.40;;;24.40;99.90;;;;;;5076155;28;20203;-54
2023/06/21 10:54:58;;;;;;;9.27;8.45;;;24.40;99.90;;;;;;5071215;28;20193;-49
2023/06/21 10:57:26;;;;;;;11.18;10.13;;;24.50;99.90;;;;;;5061180;28;20205;-54
2023/06/21 10:59:53;;;;;;;10.88;9.85;;;24.60;99.90;;;;;;5069315;28;20978;-48
2023/06/21 11:02:20;;;;;;;11.35;10.15;;;24.50;99.90;;;;;;5077372;28;20252;-51
2023/06/21 11:05:12;;;;;;;10.68;9.68;;;24.40;99.90;;;;;;5076543;28;20185;-49
2023/06/21 11:07:46;;;;;;;10.05;9.05;;;24.40;99.90;;;;;;5068320;28;20202;-51
2023/06/21 11:10:14;;;;;;;9.18;8.35;;;24.40;99.90;;;;;;5071370;28;20222;-49
2023/06/21 11:12:40;;;;;;;10.02;9.02;;;24.40;99.90;;;;;;5060085;28;20212;-51
2023/06/21 11:15:08;;;;;;;12.02;8.95;;;24.50;99.90;;;;;;5084230;28;20258;-50
2023/06/21 11:17:36;;;;;;;9.00;7.25;;;24.70;99.90;;;;;;5068647;28;20198;-50
2023/06/21 11:20:22;;;;;;;9.93;8.57;;;24.70;99.90;;;;;;5083454;28;20186;-48
2023/06/21 11:22:57;;;;;;;13.55;8.77;;;24.80;99.90;;;;;;5065293;28;20522;-51
2023/06/21 11:25:25;;;;;;;10.60;9.60;;;25.00;99.90;;;;;;5083359;28;20470;-52
2023/06/21 11:28:25;;;;;;;9.20;8.30;;;25.30;99.90;;;;;;5052223;28;20210;-50
2023/06/21 11:31:06;;;;;;;9.75;8.70;;;25.20;99.90;;;;;;5076171;28;20202;-47
2023/06/21 11:33:49;;;;;;;9.43;7.93;;;25.10;99.90;;;;;;5081754;28;20281;-51
2023/06/21 11:36:20;;;;;;;9.85;8.85;;;25.10;99.90;;;;;;5081651;28;20186;-49
2023/06/21 11:39:15;;;;;;;8.48;7.63;;;25.10;99.90;;;;;;5066153;28;20831;-49
2023/06/21 11:42:01;;;;;;;7.82;7.13;;;25.10;99.90;;;;;;5066873;28;20226;-55
2023/06/21 11:44:31;;;;;;;8.18;6.10;;;25.20;99.90;;;;;;5058518;28;20290;-52
2023/06/21 11:47:05;;;;;;;6.25;5.65;;;25.40;99.90;;;;;;5062700;28;20258;-52
2023/06/21 11:49:34;;;;;;;5.82;5.25;;;25.60;99.90;;;;;;5076328;28;20219;-50
2023/06/21 11:52:05;;;;;;;6.30;5.80;;;25.80;99.90;;;;;;5072318;28;20701;-51
2023/06/21 11:54:36;;;;;;;6.35;5.75;;;25.80;99.80;;;;;;5072349;28;20198;-51
2023/06/21 11:57:05;;;;;;;6.40;5.65;;;25.70;99.90;;;;;;5075495;28;21002;-50
2023/06/21 11:59:33;;;;;;;6.50;5.88;;;25.60;99.90;;;;;;5061711;28;20205;-51
2023/06/21 12:02:10;;;;;;;6.20;5.47;;;25.40;99.90;;;;;;5081007;28;20268;-54
2023/06/21 12:04:39;;;;;;;8.38;7.63;;;25.40;99.90;;;;;;5074986;28;20247;-52
2023/06/21 12:07:06;;;;;;;8.75;7.80;;;25.40;99.90;;;;;;5081583;28;20190;-48
2023/06/21 12:09:35;;;;;;;9.35;8.23;;;25.40;99.90;;;;;;5071650;28;20691;-51
2023/06/21 12:12:02;;;;;;;8.60;7.70;;;25.50;99.90;;;;;;5078226;28;20216;-50
2023/06/21 12:14:29;;;;;;;7.65;6.72;;;25.50;99.90;;;;;;5068421;28;20607;-53
2023/06/21 12:16:56;;;;;;;7.20;6.50;;;25.60;99.90;;;;;;5063843;28;20546;-52
2023/06/21 12:19:23;;;;;;;7.88;6.20;;;25.50;99.90;;;;;;5082742;28;20194;-51
2023/06/21 12:21:50;;;;;;;5.68;5.13;;;25.50;99.90;;;;;;5079466;28;20268;-54
2023/06/21 12:24:26;;;;;;;4.93;3.90;;;25.50;99.90;;;;;;5076241;28;20255;-51
2023/06/21 12:26:57;;;;;;;3.85;3.60;;;25.60;99.90;;;;;;5066223;28;20198;-53
2023/06/21 12:29:25;;;;;;;4.43;4.03;;;25.60;99.90;;;;;;5071295;28;20206;-53
2023/06/21 12:31:53;;;;;;;3.75;3.45;;;25.80;99.20;;;;;;5063096;28;20206;-53
2023/06/21 12:34:21;;;;;;;5.70;4.10;;;25.90;98.80;;;;;;5077551;28;20206;-48
2023/06/21 12:36:48;;;;;;;6.93;4.90;;;26.10;99.90;;;;;;5071808;28;20729;-53
2023/06/21 12:39:15;;;;;;;7.05;5.93;;;26.20;99.90;;;;;;5072807;28;20233;-52
2023/06/21 12:41:44;;;;;;;7.38;5.13;;;26.10;99.90;;;;;;5069899;28;20233;-51
2023/06/21 12:44:20;;;;;;;6.00;4.80;;;25.90;99.90;;;;;;5079692;28;20847;-54
2023/06/21 12:46:48;;;;;;;5.93;5.10;;;26.00;99.90;;;;;;5059724;28;20694;-53
2023/06/21 12:49:15;;;;;;;6.30;5.80;;;26.10;99.90;;;;;;5064034;28;20664;-52